Time;durP1;ratioP1;P1;durP2;ratioP2;P2;SDS_P1;SDS_P2;PMS_P1;PMS_P2;Temp;Humidity;BMP_temperature;BMP_pressure;BME280_temperature;BME280_humidity;BME280_pressure;Samples;Min_cycle;Max_cycle;Signal;HPM_P1;HPM_P2
2022/05/18 00:01:30;;;;;;;;;;;19.60;62.10;;;;;;5032452;28;1898;-66
2022/05/18 00:03:55;;;;;;;;;;;19.50;62.10;;;;;;5032815;28;1151;-67
2022/05/18 00:06:20;;;;;;;;;;;19.60;62.10;;;;;;5033656;28;1280;-67
2022/05/18 00:08:46;;;;;;;;;;;19.60;62.10;;;;;;5033944;28;1146;-67
2022/05/18 00:11:15;;;;;;;;;;;19.60;62.10;;;;;;5033628;28;1209;-67
2022/05/18 00:13:41;;;;;;;;;;;19.60;62.20;;;;;;5032925;28;1080;-67
2022/05/18 00:16:07;;;;;;;;;;;19.50;62.10;;;;;;5032432;28;1068;-67
2022/05/18 00:18:32;;;;;;;;;;;19.60;62.20;;;;;;5033537;28;1386;-67
2022/05/18 00:20:59;;;;;;;;;;;19.60;62.10;;;;;;5033040;28;1898;-67
2022/05/18 00:23:24;;;;;;;;;;;19.60;62.20;;;;;;5032563;28;1371;-67
2022/05/18 00:25:49;;;;;;;;;;;19.60;62.10;;;;;;5033698;28;1124;-68
2022/05/18 00:28:15;;;;;;;;;;;19.60;62.20;;;;;;5033841;28;1076;-69
2022/05/18 00:30:40;;;;;;;;;;;19.50;62.10;;;;;;5035417;28;1287;-69
2022/05/18 00:33:07;;;;;;;;;;;19.60;62.20;;;;;;5053481;28;1118;-68
2022/05/18 00:35:33;;;;;;;;;;;19.50;62.10;;;;;;5053214;28;1169;-69
2022/05/18 00:37:58;;;;;;;;;;;19.60;62.20;;;;;;5035395;28;1302;-68
2022/05/18 00:40:24;;;;;;;;;;;19.60;62.20;;;;;;5051588;28;1975;-67
2022/05/18 00:42:49;;;;;;;;;;;19.50;62.10;;;;;;5053209;28;1122;-67
2022/05/18 00:45:14;;;;;;;;;;;19.50;62.10;;;;;;5053479;28;1117;-68
2022/05/18 00:47:40;;;;;;;;;;;19.50;62.10;;;;;;5051935;28;1154;-67
2022/05/18 00:50:09;;;;;;;;;;;19.50;62.10;;;;;;5052481;28;1268;-67
2022/05/18 00:52:36;;;;;;;;;;;19.60;62.20;;;;;;5053030;28;1111;-67
2022/05/18 00:55:01;;;;;;;;;;;19.60;62.20;;;;;;5053173;28;1075;-68
2022/05/18 00:57:30;;;;;;;;;;;19.50;62.10;;;;;;5051978;28;1071;-67
2022/05/18 00:59:57;;;;;;;;;;;19.50;62.10;;;;;;5051345;28;1961;-67
2022/05/18 01:02:23;;;;;;;;;;;19.50;62.20;;;;;;5051693;28;1139;-67
2022/05/18 01:04:48;;;;;;;;;;;19.50;62.20;;;;;;5048220;28;1083;-67
2022/05/18 01:07:19;;;;;;;;;;;19.60;62.20;;;;;;5032919;28;1096;-68
2022/05/18 01:09:45;;;;;;;;;;;19.50;62.20;;;;;;5031174;28;1200;-67
2022/05/18 01:12:12;;;;;;;;;;;19.60;62.20;;;;;;5032983;28;1140;-67
2022/05/18 01:14:47;;;;;;;;;;;19.50;62.20;;;;;;5031635;28;1237;-67
2022/05/18 01:17:13;;;;;;;;;;;19.50;62.20;;;;;;5032622;28;1068;-67
2022/05/18 01:19:46;;;;;;;;;;;19.60;62.30;;;;;;5031177;28;1902;-67
2022/05/18 01:22:14;;;;;;;;;;;19.50;62.20;;;;;;5031336;28;1131;-68
2022/05/18 01:24:43;;;;;;;;;;;19.60;62.20;;;;;;5035848;28;1136;-67
2022/05/18 01:27:08;;;;;;;;;;;19.50;62.20;;;;;;5039295;28;1143;-68
2022/05/18 01:29:33;;;;;;;;;;;19.50;62.20;;;;;;5037775;28;1351;-68
2022/05/18 01:32:00;;;;;;;;;;;19.50;62.20;;;;;;5051280;28;1372;-68
2022/05/18 01:34:29;;;;;;;;;;;19.50;62.20;;;;;;5058009;28;1350;-68
2022/05/18 01:36:55;;;;;;;;;;;19.60;62.30;;;;;;5041381;28;1529;-68
2022/05/18 01:39:40;;;;;;;;;;;19.50;62.20;;;;;;5057824;28;1906;-67
2022/05/18 01:42:06;;;;;;;;;;;19.50;62.20;;;;;;5056935;28;1181;-69
2022/05/18 01:44:32;;;;;;;;;;;19.50;62.20;;;;;;5059177;28;1067;-69
2022/05/18 01:46:57;;;;;;;;;;;19.50;62.20;;;;;;5057731;28;1201;-68
2022/05/18 01:49:23;;;;;;;;;;;19.50;62.20;;;;;;5074623;28;1215;-68
2022/05/18 01:51:49;;;;;;;;;;;19.50;62.20;;;;;;5058710;28;1122;-68
2022/05/18 01:54:15;;;;;;;;;;;19.50;62.20;;;;;;5057959;28;1099;-68
2022/05/18 01:56:40;;;;;;;;;;;19.50;62.20;;;;;;5057585;28;1138;-69
2022/05/18 01:59:05;;;;;;;;;;;19.50;62.30;;;;;;5059081;28;1206;-68
2022/05/18 02:01:31;;;;;;;;;;;19.50;62.30;;;;;;5058588;28;1955;-68
2022/05/18 02:03:56;;;;;;;;;;;19.50;62.30;;;;;;5058960;28;1106;-67
2022/05/18 02:06:22;;;;;;;;;;;19.50;62.30;;;;;;5032125;28;1184;-69
2022/05/18 02:08:47;;;;;;;;;;;19.50;62.20;;;;;;5038765;28;1064;-68
2022/05/18 02:11:13;;;;;;;;;;;19.50;62.20;;;;;;5037728;28;1331;-68
2022/05/18 02:13:38;;;;;;;;;;;19.50;62.30;;;;;;5037264;28;2028;-69
2022/05/18 02:16:04;;;;;;;;;;;19.50;62.20;;;;;;5036530;28;1175;-69
2022/05/18 02:18:29;;;;;;;;;;;19.50;62.20;;;;;;5040717;28;1331;-67
2022/05/18 02:20:55;;;;;;;;;;;19.50;62.20;;;;;;5037240;28;1890;-68
2022/05/18 02:23:21;;;;;;;;;;;19.50;62.30;;;;;;5038821;28;1256;-68
2022/05/18 02:25:47;;;;;;;;;;;19.50;62.20;;;;;;5038665;28;1268;-68
2022/05/18 02:28:13;;;;;;;;;;;19.50;62.30;;;;;;5038702;28;1346;-68
2022/05/18 02:30:38;;;;;;;;;;;19.50;62.30;;;;;;5040196;28;1355;-68
2022/05/18 02:33:04;;;;;;;;;;;19.50;62.30;;;;;;5058827;28;1122;-68
2022/05/18 02:35:29;;;;;;;;;;;19.50;62.30;;;;;;5056627;28;1047;-68
2022/05/18 02:37:54;;;;;;;;;;;19.60;62.30;;;;;;5054539;28;1075;-68
2022/05/18 02:40:20;;;;;;;;;;;19.50;62.30;;;;;;5053373;28;1971;-68
2022/05/18 02:42:45;;;;;;;;;;;19.50;62.30;;;;;;5070725;28;1147;-68
2022/05/18 02:45:11;;;;;;;;;;;19.50;62.30;;;;;;5054258;28;1154;-68
2022/05/18 02:47:36;;;;;;;;;;;19.50;62.30;;;;;;5054159;28;1103;-68
2022/05/18 02:50:02;;;;;;;;;;;19.50;62.30;;;;;;5054950;28;1205;-68
2022/05/18 02:52:27;;;;;;;;;;;19.50;62.30;;;;;;5054109;28;1095;-68
2022/05/18 02:57:36;;;;;;;;;;;19.50;62.30;;;;;;5055142;28;1039;-68
2022/05/18 03:00:03;;;;;;;;;;;19.50;62.30;;;;;;5053476;28;1890;-68
2022/05/18 03:02:28;;;;;;;;;;;19.50;62.30;;;;;;5053850;28;1090;-68
2022/05/18 03:04:54;;;;;;;;;;;19.50;62.30;;;;;;5050949;28;1365;-68
2022/05/18 03:07:19;;;;;;;;;;;19.50;62.30;;;;;;5035045;28;1084;-68
2022/05/18 03:09:45;;;;;;;;;;;19.50;62.30;;;;;;5054190;28;1364;-68
2022/05/18 03:12:10;;;;;;;;;;;19.50;62.30;;;;;;5054593;28;1103;-68
2022/05/18 03:14:36;;;;;;;;;;;19.50;62.30;;;;;;5054974;28;1068;-68
2022/05/18 03:17:01;;;;;;;;;;;19.50;62.30;;;;;;5070351;28;1206;-68
2022/05/18 03:19:27;;;;;;;;;;;19.50;62.30;;;;;;5038342;28;1902;-68
2022/05/18 03:24:36;;;;;;;;;;;19.50;62.30;;;;;;5034976;28;1084;-68
2022/05/18 03:27:02;;;;;;;;;;;19.50;62.30;;;;;;5033580;28;1119;-68
2022/05/18 03:29:28;;;;;;;;;;;19.50;62.30;;;;;;5033304;28;1295;-68
2022/05/18 03:31:53;;;;;;;;;;;19.50;62.30;;;;;;5046788;28;1143;-68
2022/05/18 03:34:18;;;;;;;;;;;19.50;62.30;;;;;;5054333;28;1110;-68
2022/05/18 03:36:44;;;;;;;;;;;19.50;62.30;;;;;;5054193;28;1103;-68
2022/05/18 03:39:10;;;;;;;;;;;19.50;62.30;;;;;;5054211;28;1279;-68
2022/05/18 03:41:35;;;;;;;;;;;19.50;62.30;;;;;;5052891;28;1910;-68
2022/05/18 03:44:01;;;;;;;;;;;19.50;62.30;;;;;;5054249;28;1068;-67
2022/05/18 03:46:27;;;;;;;;;;;19.50;62.30;;;;;;5053062;28;1094;-68
2022/05/18 03:48:52;;;;;;;;;;;19.50;62.30;;;;;;5054152;28;1095;-68
2022/05/18 03:51:18;;;;;;;;;;;19.50;62.30;;;;;;5052546;28;1320;-68
2022/05/18 03:53:43;;;;;;;;;;;19.50;62.30;;;;;;5054128;28;1087;-68
2022/05/18 03:56:08;;;;;;;;;;;19.50;62.30;;;;;;5054182;28;1134;-67
2022/05/18 03:58:34;;;;;;;;;;;19.50;62.30;;;;;;5053934;28;1055;-67
2022/05/18 04:01:01;;;;;;;;;;;19.50;62.40;;;;;;5053679;28;1961;-68
2022/05/18 04:03:27;;;;;;;;;;;19.50;63.10;;;;;;5053780;28;1162;-68
2022/05/18 04:05:52;;;;;;;;;;;19.50;62.30;;;;;;5040689;28;1142;-67
2022/05/18 04:08:18;;;;;;;;;;;19.50;62.30;;;;;;5033887;28;1148;-68
2022/05/18 04:10:43;;;;;;;;;;;19.50;62.30;;;;;;5024751;28;1788;-67
2022/05/18 04:13:15;;;;;;;;;;;19.50;62.30;;;;;;5027628;28;1878;-69
2022/05/18 04:15:41;;;;;;;;;;;19.50;62.30;;;;;;5031359;28;1187;-70
2022/05/18 04:18:06;;;;;;;;;;;19.50;62.30;;;;;;5036680;28;1398;-68
2022/05/18 04:20:32;;;;;;;;;;;19.50;62.30;;;;;;5030942;28;1959;-67
2022/05/18 04:22:57;;;;;;;;;;;19.50;62.30;;;;;;5032552;28;1356;-67
2022/05/18 04:25:25;;;;;;;;;;;19.50;62.30;;;;;;5032790;28;1239;-68
2022/05/18 04:27:50;;;;;;;;;;;19.50;62.30;;;;;;5032343;28;1373;-70
2022/05/18 04:30:16;;;;;;;;;;;19.50;62.30;;;;;;5032240;28;1380;-67
2022/05/18 04:32:42;;;;;;;;;;;19.50;62.30;;;;;;5052554;28;1257;-66
2022/05/18 04:35:08;;;;;;;;;;;19.50;62.30;;;;;;5035316;28;2295;-66
2022/05/18 04:37:34;;;;;;;;;;;19.50;62.30;;;;;;5052021;28;1143;-68
2022/05/18 04:39:59;;;;;;;;;;;19.50;62.30;;;;;;5051668;28;1979;-68
2022/05/18 04:42:24;;;;;;;;;;;19.50;62.30;;;;;;5053102;28;1348;-68
2022/05/18 04:44:53;;;;;;;;;;;19.50;62.30;;;;;;5053307;28;1074;-68
2022/05/18 04:47:21;;;;;;;;;;;19.50;62.30;;;;;;5068715;28;1373;-68
2022/05/18 04:49:47;;;;;;;;;;;19.50;62.30;;;;;;5051562;28;1385;-67
2022/05/18 04:52:13;;;;;;;;;;;19.50;62.40;;;;;;5052743;28;1334;-68
2022/05/18 04:54:39;;;;;;;;;;;19.50;62.40;;;;;;5068475;28;1395;-68
2022/05/18 04:57:04;;;;;;;;;;;19.50;62.40;;;;;;5068445;28;1350;-67
2022/05/18 04:59:30;;;;;;;;;;;19.50;62.40;;;;;;5051356;28;1901;-68
2022/05/18 05:01:55;;;;;;;;;;;19.50;62.40;;;;;;5052639;28;1410;-67
2022/05/18 05:04:21;;;;;;;;;;;19.50;62.40;;;;;;5051557;28;1282;-67
2022/05/18 05:06:46;;;;;;;;;;;19.50;62.40;;;;;;5033410;28;1261;-68
2022/05/18 05:09:12;;;;;;;;;;;19.50;62.40;;;;;;5032921;28;1354;-68
2022/05/18 05:11:37;;;;;;;;;;;19.50;62.40;;;;;;5032575;28;1345;-68
2022/05/18 05:14:03;;;;;;;;;;;19.50;62.40;;;;;;5031731;28;1279;-67
2022/05/18 05:16:29;;;;;;;;;;;19.50;62.40;;;;;;5032816;28;1346;-68
2022/05/18 05:18:55;;;;;;;;;;;19.50;62.40;;;;;;5032378;28;1390;-68
2022/05/18 05:21:21;;;;;;;;;;;19.50;62.40;;;;;;5031187;28;1906;-68
2022/05/18 05:23:46;;;;;;;;;;;19.50;62.40;;;;;;5032706;28;1056;-67
2022/05/18 05:26:12;;;;;;;;;;;19.50;62.40;;;;;;5032851;28;1306;-68
2022/05/18 05:28:37;;;;;;;;;;;19.50;62.40;;;;;;5032666;28;1401;-68
2022/05/18 05:31:03;;;;;;;;;;;19.50;62.40;;;;;;5037855;28;1378;-68
2022/05/18 05:33:28;;;;;;;;;;;19.50;62.40;;;;;;5051193;28;1333;-68
2022/05/18 05:35:54;;;;;;;;;;;19.50;62.60;;;;;;5051415;28;1365;-68
2022/05/18 05:38:19;;;;;;;;;;;19.50;62.40;;;;;;5052463;28;1278;-67
2022/05/18 05:40:46;;;;;;;;;;;19.50;62.40;;;;;;5059101;23;2128;-73
2022/05/18 05:43:11;;;;;;;;;;;19.50;62.40;;;;;;5015506;28;1197;-73
2022/05/18 05:45:37;;;;;;;;;;;19.50;62.40;;;;;;5050694;28;1130;-73
2022/05/18 05:48:03;;;;;;;;;;;19.50;62.40;;;;;;5064595;28;1071;-73
2022/05/18 05:50:30;;;;;;;;;;;19.50;62.40;;;;;;5054053;28;1433;-73
2022/05/18 05:52:56;;;;;;;;;;;19.50;62.40;;;;;;5072425;28;1305;-73
2022/05/18 05:55:22;;;;;;;;;;;19.50;62.40;;;;;;5072528;28;1444;-73
2022/05/18 05:57:47;;;;;;;;;;;19.50;62.40;;;;;;5072375;28;1472;-73
2022/05/18 06:00:13;;;;;;;;;;;19.50;62.40;;;;;;5071908;28;1988;-73
2022/05/18 06:02:38;;;;;;;;;;;19.50;62.40;;;;;;5066420;28;1943;-73
2022/05/18 06:05:04;;;;;;;;;;;19.50;62.40;;;;;;5050000;28;1326;-74
2022/05/18 06:07:30;;;;;;;;;;;19.50;62.40;;;;;;5052441;28;1535;-74
2022/05/18 06:09:56;;;;;;;;;;;19.50;62.40;;;;;;5052149;28;1702;-74
2022/05/18 06:12:22;;;;;;;;;;;19.50;62.40;;;;;;5037681;28;1319;-75
2022/05/18 06:14:48;;;;;;;;;;;19.50;62.40;;;;;;5057188;28;1601;-73
2022/05/18 06:17:14;;;;;;;;;;;19.50;62.40;;;;;;5057909;28;1487;-74
2022/05/18 06:19:40;;;;;;;;;;;19.50;62.40;;;;;;5057567;28;1969;-74
2022/05/18 06:22:06;;;;;;;;;;;19.50;62.40;;;;;;5037664;28;1465;-73
2022/05/18 06:24:31;;;;;;;;;;;19.50;62.50;;;;;;5056722;28;1439;-73
2022/05/18 06:26:57;;;;;;;;;;;19.50;62.40;;;;;;5075910;28;1035;-73
2022/05/18 06:29:22;;;;;;;;;;;19.50;62.40;;;;;;5075577;28;1398;-73
2022/05/18 06:31:48;;;;;;;;;;;19.50;62.40;;;;;;5067376;28;1146;-74
2022/05/18 06:34:14;;;;;;;;;;;19.50;62.50;;;;;;5062158;28;759;-75
2022/05/18 06:36:39;;;;;;;;;;;19.50;62.40;;;;;;5057901;28;1252;-75
2022/05/18 06:39:05;;;;;;;;;;;19.50;62.40;;;;;;5062380;28;943;-71
2022/05/18 06:41:30;;;;;;;;;;;19.50;62.40;;;;;;5063690;28;1961;-73
2022/05/18 06:43:58;;;;;;;;;;;19.50;62.50;;;;;;5055930;28;981;-72
2022/05/18 06:46:24;;;;;;;;;;;19.50;62.40;;;;;;5045964;28;1131;-73
2022/05/18 06:48:49;;;;;;;;;;;19.50;62.50;;;;;;5050776;28;1266;-72
2022/05/18 06:51:17;;;;;;;;;;;19.50;62.50;;;;;;5049254;28;1212;-73
2022/05/18 06:53:43;;;;;;;;;;;19.50;62.50;;;;;;5038221;28;2306;-72
2022/05/18 06:56:08;;;;;;;;;;;19.50;62.50;;;;;;5047850;28;1003;-72
2022/05/18 06:58:33;;;;;;;;;;;19.50;62.50;;;;;;5053743;28;1135;-73
2022/05/18 07:01:03;;;;;;;;;;;19.50;62.50;;;;;;5025093;28;1973;-73
2022/05/18 07:03:28;;;;;;;;;;;19.50;62.50;;;;;;5053740;28;1191;-72
2022/05/18 07:05:54;;;;;;;;;;;19.50;62.50;;;;;;5037142;28;1297;-72
2022/05/18 07:08:19;;;;;;;;;;;19.50;62.50;;;;;;5053673;28;1618;-75
2022/05/18 07:10:45;;;;;;;;;;;19.50;62.50;;;;;;5054675;28;1274;-72
2022/05/18 07:13:16;;;;;;;;;;;19.50;62.50;;;;;;5054816;28;1452;-73
2022/05/18 07:15:42;;;;;;;;;;;19.50;62.50;;;;;;5053684;28;1179;-74
2022/05/18 07:18:08;;;;;;;;;;;19.50;62.50;;;;;;5055474;28;1313;-73
2022/05/18 07:20:34;;;;;;;;;;;19.50;62.50;;;;;;5054285;28;1965;-73
2022/05/18 07:22:59;;;;;;;;;;;19.50;62.60;;;;;;5036285;28;1110;-73
2022/05/18 07:25:25;;;;;;;;;;;19.50;62.60;;;;;;5054669;28;1063;-73
2022/05/18 07:27:50;;;;;;;;;;;19.50;63.30;;;;;;5073574;28;1294;-72
2022/05/18 07:30:16;;;;;;;;;;;19.50;62.50;;;;;;5049525;28;1346;-73
2022/05/18 07:32:41;;;;;;;;;;;19.50;62.60;;;;;;5054449;28;1328;-73
2022/05/18 07:35:07;;;;;;;;;;;19.50;62.50;;;;;;5054471;28;1143;-74
2022/05/18 07:37:33;;;;;;;;;;;19.50;62.50;;;;;;5068163;28;1346;-71
2022/05/18 07:39:58;;;;;;;;;;;19.50;62.50;;;;;;5054089;28;1910;-73
2022/05/18 07:42:24;;;;;;;;;;;19.50;62.60;;;;;;5054229;28;1155;-73
2022/05/18 07:44:49;;;;;;;;;;;19.50;62.50;;;;;;5054146;28;1100;-75
2022/05/18 07:47:15;;;;;;;;;;;19.50;62.50;;;;;;5054244;28;1131;-76
2022/05/18 07:49:41;;;;;;;;;;;19.50;62.50;;;;;;5054061;28;1227;-73
2022/05/18 07:52:06;;;;;;;;;;;19.50;62.50;;;;;;5053868;28;1415;-72
2022/05/18 07:54:32;;;;;;;;;;;19.50;62.50;;;;;;5054097;28;1080;-72
2022/05/18 07:56:57;;;;;;;;;;;19.50;63.30;;;;;;5071553;28;1102;-73
2022/05/18 07:59:23;;;;;;;;;;;19.50;62.60;;;;;;5073588;28;1392;-72
2022/05/18 08:01:48;;;;;;;;;;;19.50;62.50;;;;;;5073633;28;1957;-73
2022/05/18 08:04:14;;;;;;;;;;;19.50;63.30;;;;;;5073923;28;1277;-74
2022/05/18 08:06:39;;;;;;;;;;;19.50;63.30;;;;;;5055333;28;1194;-74
2022/05/18 08:09:05;;;;;;;;;;;19.50;62.50;;;;;;5053913;28;1048;-74
2022/05/18 08:16:59;;;;;;;;;;;19.50;62.60;;;;;;5052744;28;1281;-73
2022/05/18 08:19:24;;;;;;;;;;;19.50;62.60;;;;;;5053459;28;1373;-73
2022/05/18 08:21:49;;;;;;;;;;;19.50;62.60;;;;;;5050326;28;1898;-70
2022/05/18 08:24:15;;;;;;;;;;;19.50;62.50;;;;;;5050466;28;1596;-70
2022/05/18 08:26:43;;;;;;;;;;;19.50;62.60;;;;;;5064570;28;801;-67
2022/05/18 08:29:09;;;;;;;;;;;19.50;62.50;;;;;;5070976;28;1301;-69
2022/05/18 08:31:34;;;;;;;;;;;19.50;62.50;;;;;;5037901;28;1205;-66
2022/05/18 08:34:00;;;;;;;;;;;19.50;62.60;;;;;;5072657;28;1051;-68
2022/05/18 08:36:26;;;;;;;;;;;19.50;62.60;;;;;;5073425;28;1061;-68
2022/05/18 08:38:55;;;;;;;;;;;19.50;62.50;;;;;;5073342;28;1301;-67
2022/05/18 08:41:21;;;;;;;;;;;19.50;62.60;;;;;;5054756;28;1965;-73
2022/05/18 08:43:48;;;;;;;;;;;19.50;62.60;;;;;;5073065;28;1178;-73
2022/05/18 08:46:32;;;;;;;;;;;19.50;62.50;;;;;;5055386;28;1292;-74
2022/05/18 08:48:59;;;;;;;;;;;19.50;62.50;;;;;;5053686;28;1205;-73
2022/05/18 08:51:35;;;;;;;;;;;19.50;62.50;;;;;;5051508;28;1224;-74
2022/05/18 08:54:13;;;;;;;;;;;19.50;62.60;;;;;;5023254;28;1131;-74
2022/05/18 08:56:39;;;;;;;;;;;19.50;62.60;;;;;;5035418;28;1148;-74
2022/05/18 08:59:05;;;;;;;;;;;19.50;62.60;;;;;;5051889;28;1386;-73
2022/05/18 09:01:40;;;;;;;;;;;19.50;62.60;;;;;;5051467;28;1991;-74
2022/05/18 09:04:08;;;;;;;;;;;19.50;62.60;;;;;;5018511;28;1172;-73
2022/05/18 09:06:35;;;;;;;;;;;19.50;62.60;;;;;;5039150;28;1172;-75
2022/05/18 09:11:48;;;;;;;;;;;19.50;62.60;;;;;;5024876;28;1001;-72
2022/05/18 09:14:17;;;;;;;;;;;19.50;62.70;;;;;;5051768;28;1084;-73
2022/05/18 09:16:44;;;;;;;;;;;19.50;62.70;;;;;;5047745;28;1087;-74
2022/05/18 09:19:22;;;;;;;;;;;19.50;62.60;;;;;;5043115;28;1952;-72
2022/05/18 09:21:57;;;;;;;;;;;19.50;62.70;;;;;;5051429;28;1953;-73
2022/05/18 09:24:28;;;;;;;;;;;19.50;62.60;;;;;;5052777;28;1170;-73
2022/05/18 09:26:57;;;;;;;;;;;19.50;62.70;;;;;;5063048;28;836;-75
2022/05/18 09:29:24;;;;;;;;;;;19.50;62.70;;;;;;5032173;28;1884;-75
2022/05/18 09:32:08;;;;;;;;;;;19.50;62.70;;;;;;5059229;28;1147;-74
2022/05/18 09:34:44;;;;;;;;;;;19.50;62.70;;;;;;5054701;28;1265;-75
2022/05/18 09:37:28;;;;;;;;;;;19.50;63.40;;;;;;5067259;28;1082;-75
2022/05/18 09:39:56;;;;;;;;;;;19.50;62.70;;;;;;5072100;28;1894;-74
2022/05/18 09:42:22;;;;;;;;;;;19.50;62.70;;;;;;5054903;28;1347;-74
2022/05/18 09:44:57;;;;;;;;;;;19.50;62.70;;;;;;5073365;28;1361;-75
2022/05/18 09:47:23;;;;;;;;;;;19.50;62.70;;;;;;5058498;28;1375;-75
2022/05/18 09:49:50;;;;;;;;;;;19.50;62.70;;;;;;5076159;28;1376;-74
2022/05/18 09:52:17;;;;;;;;;;;19.50;62.70;;;;;;5058540;28;1347;-75
2022/05/18 09:54:42;;;;;;;;;;;19.50;63.20;;;;;;5058696;28;1106;-74
2022/05/18 09:57:12;;;;;;;;;;;19.50;62.70;;;;;;5076352;28;1444;-75
2022/05/18 09:59:40;;;;;;;;;;;19.50;62.70;;;;;;5058239;28;1898;-75
2022/05/18 10:07:46;;;;;;;;;;;19.50;62.70;;;;;;5055273;28;1256;-74
2022/05/18 10:10:12;;;;;;;;;;;19.50;62.70;;;;;;5054600;28;1334;-75
2022/05/18 10:12:48;;;;;;;;;;;19.50;62.70;;;;;;5054684;28;1315;-74
2022/05/18 10:15:25;;;;;;;;;;;19.50;62.70;;;;;;5056160;28;1045;-75
2022/05/18 10:17:58;;;;;;;;;;;19.40;62.60;;;;;;5055770;28;1358;-75
2022/05/18 10:20:25;;;;;;;;;;;19.50;62.70;;;;;;5046683;28;1906;-74
2022/05/18 10:22:51;;;;;;;;;;;19.50;62.70;;;;;;5055673;28;1399;-75
2022/05/18 10:25:28;;;;;;;;;;;19.50;62.70;;;;;;5038149;28;1242;-75
2022/05/18 10:27:54;;;;;;;;;;;19.50;62.70;;;;;;5037760;28;1380;-75
2022/05/18 10:30:19;;;;;;;;;;;19.50;62.70;;;;;;5042998;28;1228;-75
2022/05/18 10:32:52;;;;;;;;;;;19.50;62.70;;;;;;5055479;28;1545;-75
2022/05/18 10:35:37;;;;;;;;;;;19.50;62.70;;;;;;5056048;28;1072;-75
2022/05/18 10:38:03;;;;;;;;;;;19.50;62.70;;;;;;5075589;28;1370;-75
2022/05/18 10:40:28;;;;;;;;;;;19.50;62.70;;;;;;5056980;28;1969;-75
2022/05/18 10:42:54;;;;;;;;;;;19.50;62.80;;;;;;5040928;28;1444;-75
2022/05/18 10:45:26;;;;;;;;;;;19.50;62.70;;;;;;5057665;28;1468;-74
2022/05/18 10:47:52;;;;;;;;;;;19.50;62.70;;;;;;5075324;28;1154;-75
2022/05/18 10:50:27;;;;;;;;;;;19.50;62.70;;;;;;5057034;28;1367;-75
2022/05/18 10:52:59;;;;;;;;;;;19.40;62.70;;;;;;5057411;28;1091;-75
2022/05/18 10:55:24;;;;;;;;;;;19.50;62.80;;;;;;5057705;28;1119;-75
2022/05/18 10:57:54;;;;;;;;;;;19.50;62.80;;;;;;5074960;28;1381;-75
2022/05/18 11:00:20;;;;;;;;;;;19.50;62.80;;;;;;5057002;28;1902;-75
2022/05/18 11:02:58;;;;;;;;;;;19.50;62.80;;;;;;5057438;28;1143;-75
2022/05/18 11:05:26;;;;;;;;;;;19.50;62.80;;;;;;5032773;28;1568;-75
2022/05/18 11:07:51;;;;;;;;;;;19.50;62.80;;;;;;5055015;28;1342;-75
2022/05/18 11:10:17;;;;;;;;;;;19.50;62.80;;;;;;5054766;28;1264;-75
2022/05/18 11:12:46;;;;;;;;;;;19.50;62.80;;;;;;5053775;28;1063;-75
2022/05/18 11:15:17;;;;;;;;;;;19.50;62.80;;;;;;5054774;28;1425;-75
2022/05/18 11:18:04;;;;;;;;;;;19.50;62.80;;;;;;5054962;28;1360;-75
2022/05/18 11:20:35;;;;;;;;;;;19.50;62.80;;;;;;5046463;28;1963;-75
2022/05/18 11:23:05;;;;;;;;;;;19.50;62.80;;;;;;5054855;28;1338;-75
2022/05/18 11:25:37;;;;;;;;;;;19.50;62.80;;;;;;5053980;28;1424;-75
2022/05/18 11:28:14;;;;;;;;;;;19.50;62.80;;;;;;5053711;28;1073;-75
2022/05/18 11:30:42;;;;;;;;;;;19.50;62.80;;;;;;5043812;28;1287;-74
2022/05/18 11:33:07;;;;;;;;;;;19.50;62.80;;;;;;5056819;28;1093;-74
2022/05/18 11:35:39;;;;;;;;;;;19.50;62.80;;;;;;5074446;28;1387;-74
2022/05/18 11:38:14;;;;;;;;;;;19.50;62.80;;;;;;5074330;28;1071;-74
2022/05/18 11:40:40;;;;;;;;;;;19.50;62.80;;;;;;5057680;23;3682;-69
2022/05/18 11:43:28;;;;;;;;;;;19.50;62.80;;;;;;5006230;28;1163;-69
2022/05/18 11:45:59;;;;;;;;;;;19.50;62.80;;;;;;5013765;28;1334;-69
2022/05/18 11:48:31;;;;;;;;;;;19.50;62.80;;;;;;5014185;28;1274;-69
2022/05/18 11:50:59;;;;;;;;;;;19.50;62.80;;;;;;5019024;28;1229;-69
2022/05/18 11:53:43;;;;;;;;;;;19.50;62.80;;;;;;5014427;28;1294;-69
2022/05/18 11:56:12;;;;;;;;;;;19.50;62.80;;;;;;5014589;28;1092;-69
2022/05/18 11:59:03;;;;;;;;;;;19.50;62.80;;;;;;5014262;28;1373;-69
2022/05/18 12:01:28;;;;;;;;;;;19.50;62.80;;;;;;5013114;28;1922;-69
2022/05/18 12:03:58;;;;;;;;;;;19.50;62.80;;;;;;5014088;28;1326;-69
2022/05/18 12:06:27;;;;;;;;;;;19.50;62.80;;;;;;5013205;28;1133;-69
2022/05/18 12:09:10;;;;;;;;;;;19.50;62.90;;;;;;5014096;28;1285;-69
2022/05/18 12:11:54;;;;;;;;;;;19.50;62.80;;;;;;5012586;28;1272;-69
2022/05/18 12:14:32;;;;;;;;;;;19.50;62.80;;;;;;5014067;28;1338;-69
2022/05/18 12:17:01;;;;;;;;;;;19.50;62.80;;;;;;5012990;28;1290;-69
2022/05/18 12:19:45;;;;;;;;;;;19.50;62.80;;;;;;5014544;28;1411;-69
2022/05/18 12:22:33;;;;;;;;;;;19.50;62.90;;;;;;5012620;28;1328;-69
2022/05/18 12:24:59;;;;;;;;;;;19.50;62.90;;;;;;5005753;28;1161;-69
2022/05/18 12:27:24;;;;;;;;;;;19.50;62.80;;;;;;5012713;28;1399;-69
2022/05/18 12:29:50;;;;;;;;;;;19.50;62.90;;;;;;5015666;28;1381;-69
2022/05/18 12:32:16;;;;;;;;;;;19.50;62.90;;;;;;5033501;28;1325;-69
2022/05/18 12:34:45;;;;;;;;;;;19.50;62.80;;;;;;5012509;28;1344;-69
2022/05/18 12:37:14;;;;;;;;;;;19.50;62.80;;;;;;5013711;28;1060;-69
2022/05/18 12:39:43;;;;;;;;;;;19.50;62.90;;;;;;5013560;28;1890;-69
2022/05/18 12:42:10;;;;;;;;;;;19.50;62.90;;;;;;4989556;28;1873;-69
2022/05/18 12:44:37;;;;;;;;;;;19.50;62.90;;;;;;5022076;28;2047;-69
2022/05/18 12:47:18;;;;;;;;;;;19.50;62.80;;;;;;5023372;28;2284;-69
2022/05/18 12:49:44;;;;;;;;;;;19.40;62.80;;;;;;5006088;28;1275;-69
2022/05/18 12:52:17;;;;;;;;;;;19.50;62.90;;;;;;5028431;28;1351;-69
2022/05/18 12:54:43;;;;;;;;;;;19.50;62.90;;;;;;5028896;28;1271;-69
2022/05/18 12:57:10;;;;;;;;;;;19.50;62.90;;;;;;5028589;28;1217;-69
2022/05/18 12:59:55;;;;;;;;;;;19.50;62.90;;;;;;5013299;28;1350;-69
2022/05/18 13:02:33;;;;;;;;;;;19.40;62.80;;;;;;5012120;28;1280;-69
2022/05/18 13:04:59;;;;;;;;;;;19.50;62.90;;;;;;5013448;28;1350;-69
2022/05/18 13:07:28;;;;;;;;;;;19.50;62.90;;;;;;5028379;28;1327;-70
2022/05/18 13:10:04;;;;;;;;;;;19.50;62.90;;;;;;5011647;28;1464;-70
2022/05/18 13:12:35;;;;;;;;;;;19.50;63.60;;;;;;5013193;28;1068;-70
2022/05/18 13:15:19;;;;;;;;;;;19.50;62.90;;;;;;5013269;28;1276;-69
2022/05/18 13:17:51;;;;;;;;;;;19.50;62.90;;;;;;5030133;28;1415;-69
2022/05/18 13:20:26;;;;;;;;;;;19.50;62.90;;;;;;5010951;28;1901;-69
2022/05/18 13:23:01;;;;;;;;;;;19.50;62.90;;;;;;5013228;28;1405;-69
2022/05/18 13:25:28;;;;;;;;;;;19.50;62.90;;;;;;5028310;28;1597;-70
2022/05/18 13:27:53;;;;;;;;;;;19.50;62.90;;;;;;5027343;28;1245;-70
2022/05/18 13:30:21;;;;;;;;;;;19.50;62.90;;;;;;5033999;28;1362;-70
2022/05/18 13:32:46;;;;;;;;;;;19.40;62.80;;;;;;5014604;28;1314;-70
2022/05/18 13:35:19;;;;;;;;;;;19.50;62.90;;;;;;5027395;28;1286;-70
2022/05/18 13:37:50;;;;;;;;;;;19.50;62.90;;;;;;5010879;28;1194;-70
2022/05/18 13:40:15;;;;;;;;;;;19.40;62.80;;;;;;5010438;28;1902;-70
2022/05/18 13:42:40;;;;;;;;;;;19.50;62.90;;;;;;5011685;28;1385;-70
2022/05/18 13:45:09;;;;;;;;;;;19.50;62.90;;;;;;5011337;28;1349;-70
2022/05/18 13:47:45;;;;;;;;;;;19.50;62.90;;;;;;5013951;28;1383;-70
2022/05/18 13:50:27;;;;;;;;;;;19.50;62.90;;;;;;5030175;28;1292;-70
2022/05/18 13:52:53;;;;;;;;;;;19.50;62.90;;;;;;5011573;28;1313;-70
2022/05/18 13:55:20;;;;;;;;;;;19.50;62.90;;;;;;5012614;28;1321;-70
2022/05/18 13:57:46;;;;;;;;;;;19.50;62.90;;;;;;5012607;28;1087;-70
2022/05/18 14:00:38;;;;;;;;;;;19.50;62.90;;;;;;5027307;28;1969;-70
2022/05/18 14:03:03;;;;;;;;;;;19.50;62.90;;;;;;5009759;28;1304;-70
2022/05/18 14:05:30;;;;;;;;;;;19.50;62.90;;;;;;5011294;28;1073;-70
2022/05/18 14:07:55;;;;;;;;;;;19.50;62.90;;;;;;5027742;28;1298;-70
2022/05/18 14:10:21;;;;;;;;;;;19.50;62.90;;;;;;5012413;28;1279;-70
2022/05/18 14:12:47;;;;;;;;;;;19.50;62.90;;;;;;5012915;28;1331;-70
2022/05/18 14:15:13;;;;;;;;;;;19.50;62.90;;;;;;5010237;28;1294;-70
2022/05/18 14:17:38;;;;;;;;;;;19.40;62.80;;;;;;5013669;28;1390;-70
2022/05/18 14:20:07;;;;;;;;;;;19.50;62.90;;;;;;5027728;28;1953;-69
2022/05/18 14:22:33;;;;;;;;;;;19.50;63.70;;;;;;5012149;28;1309;-70
2022/05/18 14:25:06;;;;;;;;;;;19.40;62.90;;;;;;5012375;28;1310;-70
2022/05/18 14:27:43;;;;;;;;;;;19.50;62.90;;;;;;5011190;28;1347;-70
2022/05/18 14:30:13;;;;;;;;;;;19.50;63.00;;;;;;5016275;28;1279;-70
2022/05/18 14:32:41;;;;;;;;;;;19.50;62.90;;;;;;5030983;28;1511;-70
2022/05/18 14:35:06;;;;;;;;;;;19.40;62.80;;;;;;5030609;28;1485;-70
2022/05/18 14:37:34;;;;;;;;;;;19.40;62.90;;;;;;5031226;28;1410;-70
2022/05/18 14:40:00;;;;;;;;;;;19.50;62.90;;;;;;5030772;28;1947;-70
2022/05/18 14:42:25;;;;;;;;;;;19.50;62.90;;;;;;5031136;28;1349;-70
2022/05/18 14:44:52;;;;;;;;;;;19.50;62.90;;;;;;5030804;28;1083;-70
2022/05/18 14:47:34;;;;;;;;;;;19.50;62.90;;;;;;5030906;28;1311;-70
2022/05/18 14:50:21;;;;;;;;;;;19.50;62.90;;;;;;5030478;28;1388;-69
2022/05/18 14:53:00;;;;;;;;;;;19.50;63.00;;;;;;5014307;28;1435;-69
2022/05/18 14:55:29;;;;;;;;;;;19.50;63.00;;;;;;5015578;28;1307;-70